Terminal Aerodrome Forecast
Issued by NWS Dodge City, KS

Home | Current Version | Previous Version | Text Only | Print | Product List | Glossary On
Versions: 1 2 3 4 5 6 7 8 9 10 11 12 13 14 15 16
000
FTUS43 KDDC 011133
TAFDDC
TAF
KDDC 011133Z 0112/0212 35017G25KT P6SM OVC014
     FM011800 36017G25KT P6SM OVC030
     FM012100 01013G18KT P6SM VCSH OVC035
     FM020300 01009KT P6SM VCSH OVC020=

USA.gov is the U.S. government's official web portal to all federal, state and local government web resources and services.